createdAt,value
2018-11-20T00:00:02.389Z,100830.31
2018-11-20T00:02:56.248Z,100818.94
2018-11-20T00:05:49.817Z,100812.66
2018-11-20T00:08:36.755Z,100813.46
2018-11-20T00:11:16.032Z,100808.86
2018-11-20T00:13:56.493Z,100815.73
2018-11-20T00:16:43.352Z,100802.24
2018-11-20T00:19:49.697Z,100794.11
2018-11-20T00:22:38.960Z,100790.70
2018-11-20T00:25:33.145Z,100783.92
2018-11-20T00:28:19.987Z,100774.27
2018-11-20T00:31:20.164Z,100776.41
2018-11-20T00:34:03.791Z,100772.04
2018-11-20T00:36:51.169Z,100764.53
2018-11-20T00:39:37.136Z,100761.92
2018-11-20T00:42:24.843Z,100763.53
2018-11-20T00:45:21.891Z,100762.77
2018-11-20T00:48:18.948Z,100759.81
2018-11-20T00:51:09.763Z,100755.61
2018-11-20T00:54:01.216Z,100750.20
2018-11-20T00:57:03.909Z,100757.33
2018-11-20T00:59:54.357Z,100757.78
2018-11-20T01:02:41.591Z,100756.98
2018-11-20T01:05:28.834Z,100751.89
2018-11-20T01:08:15.853Z,100738.45
2018-11-20T01:11:03.441Z,100752.81
2018-11-20T01:13:54.200Z,100762.16
2018-11-20T01:16:41.167Z,100749.41
2018-11-20T01:19:35.359Z,100748.17
2018-11-20T01:22:29.529Z,100748.59
2018-11-20T01:25:16.480Z,100743.12
2018-11-20T01:28:04.768Z,100740.94
2018-11-20T01:30:55.958Z,100730.78
2018-11-20T01:33:49.979Z,100738.67
2018-11-20T01:36:47.503Z,100719.71
2018-11-20T01:39:34.995Z,100719.63
2018-11-20T01:42:33.785Z,100709.52
2018-11-20T01:45:22.063Z,100698.91
2018-11-20T01:48:25.548Z,100697.61
2018-11-20T01:51:12.509Z,100697.14
2018-11-20T01:54:06.804Z,100686.92
2018-11-20T01:56:55.113Z,100687.38
2018-11-20T01:59:42.160Z,100669.64
2018-11-20T02:02:36.472Z,100672.25
2018-11-20T02:05:34.719Z,100676.00
2018-11-20T02:08:21.451Z,100676.42
2018-11-20T02:11:10.905Z,100671.37
2018-11-20T02:14:09.173Z,100656.25
2018-11-20T02:17:22.968Z,100657.58
2018-11-20T02:20:06.358Z,100653.75
2018-11-20T02:22:53.053Z,100650.88
2018-11-20T02:25:50.285Z,100648.36
2018-11-20T02:28:38.680Z,100643.38
2018-11-20T02:31:36.026Z,100644.67
2018-11-20T02:34:24.709Z,100640.00
2018-11-20T02:37:27.259Z,100632.03
2018-11-20T02:40:06.680Z,100637.55
2018-11-20T02:43:00.920Z,100618.62
2018-11-20T02:45:49.267Z,100623.75
2018-11-20T02:48:43.469Z,100623.75
2018-11-20T02:51:45.708Z,100615.36
2018-11-20T02:54:32.772Z,100602.27
2018-11-20T02:57:30.573Z,100625.44
2018-11-20T03:00:16.325Z,100612.41
2018-11-20T03:02:59.630Z,100617.47
2018-11-20T03:05:45.662Z,100618.31
2018-11-20T03:08:32.446Z,100603.63
2018-11-20T03:11:26.500Z,100572.41
2018-11-20T03:14:17.679Z,100609.14
2018-11-20T03:17:08.645Z,100615.00
2018-11-20T03:19:59.628Z,100606.19
2018-11-20T03:22:46.308Z,100612.90
2018-11-20T03:25:59.572Z,100610.79
2018-11-20T03:28:59.601Z,100629.30
2018-11-20T03:31:46.248Z,100619.53
2018-11-20T03:34:27.741Z,100621.29
2018-11-20T03:37:30.958Z,100613.15
2018-11-20T03:40:37.069Z,100603.10
2018-11-20T03:43:31.264Z,100620.80
2018-11-20T03:46:17.200Z,100611.95
2018-11-20T03:49:04.419Z,100601.45
2018-11-20T03:51:55.737Z,100606.89
2018-11-20T03:54:40.743Z,100612.27
2018-11-20T03:57:41.289Z,100609.36
2018-11-20T04:00:33.573Z,100616.45
2018-11-20T04:03:21.253Z,100609.25
2018-11-20T04:06:24.577Z,100615.50
2018-11-20T04:09:11.513Z,100609.56
2018-11-20T04:11:58.614Z,100611.70
2018-11-20T04:14:45.685Z,100616.69
2018-11-20T04:17:43.468Z,100615.00
2018-11-20T04:20:37.668Z,100602.78
2018-11-20T04:23:30.590Z,100593.91
2018-11-20T04:26:17.575Z,100597.70
2018-11-20T04:28:56.580Z,100595.09
2018-11-20T04:32:11.142Z,100606.05
2018-11-20T04:35:03.172Z,100610.30
2018-11-20T04:37:57.410Z,100609.38
2018-11-20T04:40:36.911Z,100605.55
2018-11-20T04:43:17.402Z,100621.48
2018-11-20T04:46:20.970Z,100605.05
2018-11-20T04:49:21.141Z,100587.72
2018-11-20T04:52:15.246Z,100593.19
2018-11-20T04:55:01.870Z,100599.97
2018-11-20T04:57:50.094Z,100589.64
2018-11-20T05:00:41.516Z,100604.87
2018-11-20T05:03:27.879Z,100606.16
2018-11-20T05:06:34.328Z,100581.67
2018-11-20T05:09:21.081Z,100603.52
2018-11-20T05:12:18.363Z,100594.23
2018-11-20T05:15:05.052Z,100588.25
2018-11-20T05:17:59.323Z,100559.13
2018-11-20T05:20:50.278Z,100594.91
2018-11-20T05:23:41.369Z,100588.18
2018-11-20T05:26:18.245Z,100596.14
2018-11-20T05:28:57.485Z,100596.55
2018-11-20T05:31:44.431Z,100605.81
2018-11-20T05:34:35.623Z,100587.72
2018-11-20T05:37:29.976Z,100596.06
2018-11-20T05:40:18.502Z,100595.25
2018-11-20T05:43:05.426Z,100620.05
2018-11-20T05:46:08.862Z,100604.13
2018-11-20T05:48:55.706Z,100599.42
2018-11-20T05:51:42.487Z,100605.78
2018-11-20T05:54:36.249Z,100609.06
2018-11-20T05:57:36.791Z,100596.44
2018-11-20T06:00:24.053Z,100595.55
2018-11-20T06:03:10.771Z,100603.13
2018-11-20T06:05:50.395Z,100608.64
2018-11-20T06:08:31.078Z,100618.79
2018-11-20T06:11:31.497Z,100598.50
2018-11-20T06:14:37.732Z,100590.58
2018-11-20T06:17:34.856Z,100606.03
2018-11-20T06:20:23.198Z,100603.59
2018-11-20T06:23:17.371Z,100619.13
2018-11-20T06:26:24.034Z,100605.58
2018-11-20T06:29:09.346Z,100600.52
2018-11-20T06:31:57.517Z,100597.63
2018-11-20T06:34:35.561Z,100611.93
2018-11-20T06:37:34.867Z,100625.78
2018-11-20T06:40:23.154Z,100606.84
2018-11-20T06:43:14.297Z,100605.66
2018-11-20T06:46:02.595Z,100602.75
2018-11-20T06:48:43.468Z,100598.92
2018-11-20T06:51:46.676Z,100601.79
2018-11-20T06:54:30.362Z,100592.61
2018-11-20T06:57:24.653Z,100588.36
2018-11-20T07:00:18.606Z,100590.80
2018-11-20T07:03:15.684Z,100580.40
2018-11-20T07:06:06.774Z,100579.48
2018-11-20T07:09:00.830Z,100576.04
2018-11-20T07:11:47.821Z,100571.38
2018-11-20T07:14:37.610Z,100568.84
2018-11-20T07:17:29.309Z,100569.30
2018-11-20T07:20:17.574Z,100562.61
2018-11-20T07:23:03.666Z,100563.38
2018-11-20T07:25:50.423Z,100559.55
2018-11-20T07:28:44.307Z,100553.20
2018-11-20T07:31:31.229Z,100553.99
2018-11-20T07:34:17.929Z,100542.67
2018-11-20T07:37:04.736Z,100546.08
2018-11-20T07:39:55.802Z,100539.00
2018-11-20T07:42:53.385Z,100537.28
2018-11-20T07:45:40.521Z,100542.75
2018-11-20T07:48:27.197Z,100549.45
2018-11-20T07:51:17.975Z,100528.78
2018-11-20T07:54:08.939Z,100525.88
2018-11-20T07:57:05.334Z,100538.50
2018-11-20T08:00:02.263Z,100546.58
2018-11-20T08:02:59.272Z,100534.83
2018-11-20T08:06:09.702Z,100541.57
2018-11-20T08:08:57.931Z,100534.75
2018-11-20T08:11:55.292Z,100542.33
2018-11-20T08:14:58.772Z,100545.35
2018-11-20T08:17:55.967Z,100532.31
2018-11-20T08:20:49.113Z,100520.48
2018-11-20T08:23:52.320Z,100516.70
2018-11-20T08:26:46.457Z,100509.13
2018-11-20T08:29:26.748Z,100521.06
2018-11-20T08:32:15.077Z,100521.63
2018-11-20T08:34:54.299Z,100509.42
2018-11-20T08:37:41.065Z,100519.98
2018-11-20T08:40:27.563Z,100515.56
2018-11-20T08:43:15.851Z,100514.66
2018-11-20T08:46:02.775Z,100513.39
2018-11-20T08:48:51.023Z,100521.92
2018-11-20T08:51:38.118Z,100510.94
2018-11-20T08:54:18.489Z,100527.85
2018-11-20T08:57:09.632Z,100528.66
2018-11-20T09:00:03.391Z,100516.87
2018-11-20T09:02:46.102Z,100478.09
2018-11-20T09:05:46.357Z,100505.98
2018-11-20T09:08:33.443Z,100516.52
2018-11-20T09:11:20.245Z,100507.56
2018-11-20T09:14:14.215Z,100504.27
2018-11-20T09:17:20.585Z,100498.83
2018-11-20T09:20:08.953Z,100495.49
2018-11-20T09:22:59.973Z,100509.32
2018-11-20T09:25:50.422Z,100498.89
2018-11-20T09:28:37.060Z,100484.06
2018-11-20T09:31:23.249Z,100486.55
2018-11-20T09:34:11.611Z,100479.08
2018-11-20T09:36:58.330Z,100473.14
2018-11-20T09:39:47.505Z,100462.20
2018-11-20T09:42:42.170Z,100482.86
2018-11-20T09:46:14.886Z,100479.14
2018-11-20T09:48:58.704Z,100488.79
2018-11-20T09:51:50.214Z,100457.20
2018-11-20T09:54:38.426Z,100474.47
2018-11-20T09:57:44.695Z,100479.53
2018-11-20T10:00:38.933Z,100477.87
2018-11-20T10:03:36.220Z,100465.70
2018-11-20T10:06:23.307Z,100466.60
2018-11-20T10:09:20.839Z,100470.78
2018-11-20T10:12:04.499Z,100459.86
2018-11-20T10:14:46.186Z,100459.80
2018-11-20T10:17:40.612Z,100467.37
2018-11-20T10:20:22.972Z,100469.48
2018-11-20T10:23:13.744Z,100464.05
2018-11-20T10:26:05.184Z,100457.76
2018-11-20T10:29:00.826Z,100448.11
2018-11-20T10:31:51.827Z,100443.05
2018-11-20T10:34:38.694Z,100431.62
2018-11-20T10:37:26.812Z,100430.05
2018-11-20T10:40:13.473Z,100439.71
2018-11-20T10:43:00.213Z,100433.00
2018-11-20T10:45:48.434Z,100425.45
2018-11-20T10:48:35.498Z,100417.36
2018-11-20T10:51:18.674Z,100434.75
2018-11-20T10:54:06.821Z,100405.66
2018-11-20T10:56:53.792Z,100425.00
2018-11-20T10:59:40.576Z,100419.58
2018-11-20T11:02:27.337Z,100426.35
2018-11-20T11:05:14.102Z,100417.90
2018-11-20T11:08:01.869Z,100408.21
2018-11-20T11:10:39.676Z,100408.21
2018-11-20T11:13:26.576Z,100408.63
2018-11-20T11:16:13.558Z,100410.77
2018-11-20T11:19:00.644Z,100407.03
2018-11-20T11:21:58.731Z,100403.23
2018-11-20T11:24:50.088Z,100399.92
2018-11-20T11:27:36.947Z,100398.63
2018-11-20T11:30:25.699Z,100395.30
2018-11-20T11:33:13.425Z,100392.82
2018-11-20T11:35:57.821Z,100387.73
2018-11-20T11:38:36.169Z,100386.95
2018-11-20T11:41:25.140Z,100375.13
2018-11-20T11:44:23.866Z,100371.39
2018-11-20T11:47:10.537Z,100365.02
2018-11-20T11:49:57.692Z,100364.98
2018-11-20T11:52:40.417Z,100362.40
2018-11-20T11:55:27.829Z,100363.27
2018-11-20T11:58:18.980Z,100370.48
2018-11-20T12:01:06.031Z,100388.12
2018-11-20T12:03:54.422Z,100370.83
2018-11-20T12:06:48.667Z,100354.03
2018-11-20T12:09:36.961Z,100359.95
2018-11-20T12:12:24.060Z,100373.44
2018-11-20T12:15:11.090Z,100343.05
2018-11-20T12:18:05.344Z,100351.11
2018-11-20T12:20:56.694Z,100338.86
2018-11-20T12:23:48.016Z,100336.39
2018-11-20T12:26:35.248Z,100327.54
2018-11-20T12:29:17.116Z,100338.02
2018-11-20T12:32:08.509Z,100330.41
2018-11-20T12:34:50.774Z,100326.28
2018-11-20T12:37:40.756Z,100319.88
2018-11-20T12:40:25.745Z,100300.47
2018-11-20T12:43:20.015Z,100306.79
2018-11-20T12:46:11.196Z,100316.06
2018-11-20T12:48:56.338Z,100297.08
2018-11-20T12:51:39.645Z,100286.58
2018-11-20T12:54:33.900Z,100288.23
2018-11-20T12:57:31.113Z,100292.45
2018-11-20T13:00:18.224Z,100290.31
2018-11-20T13:03:05.250Z,100289.89
2018-11-20T13:05:59.591Z,100287.78
2018-11-20T13:08:47.140Z,100282.36
2018-11-20T13:11:35.559Z,100293.30
2018-11-20T13:14:22.565Z,100284.07
2018-11-20T13:17:13.750Z,100290.41
2018-11-20T13:20:03.764Z,100275.16
2018-11-20T13:23:03.926Z,100286.92
2018-11-20T13:25:51.071Z,100290.34
2018-11-20T13:28:38.083Z,100291.98
2018-11-20T13:31:24.943Z,100292.77
2018-11-20T13:34:11.931Z,100282.27
2018-11-20T13:37:13.801Z,100297.08
2018-11-20T13:40:00.979Z,100282.27
2018-11-20T13:42:40.654Z,100282.27
2018-11-20T13:45:31.620Z,100278.92
2018-11-20T13:48:11.566Z,100276.81
2018-11-20T13:51:08.604Z,100275.16
2018-11-20T13:53:46.681Z,100268.81
2018-11-20T13:56:41.134Z,100265.86
2018-11-20T13:59:41.140Z,100270.05
2018-11-20T14:02:29.414Z,100278.89
2018-11-20T14:05:16.453Z,100269.63
2018-11-20T14:08:03.730Z,100271.70
2018-11-20T14:10:46.134Z,100280.95
2018-11-20T14:13:32.844Z,100280.50
2018-11-20T14:16:33.066Z,100282.59
2018-11-20T14:19:20.418Z,100290.59
2018-11-20T14:21:58.730Z,100291.85
2018-11-20T14:24:46.844Z,100290.98
2018-11-20T14:27:37.157Z,100295.62
2018-11-20T14:30:26.414Z,100295.19
2018-11-20T14:33:30.004Z,100284.22
2018-11-20T14:36:23.518Z,100283.38
2018-11-20T14:39:11.185Z,100275.34
2018-11-20T14:42:05.177Z,100280.38
2018-11-20T14:44:51.964Z,100284.59
2018-11-20T14:47:38.674Z,100272.83
2018-11-20T14:50:42.528Z,100283.72
2018-11-20T14:53:33.611Z,100281.19
2018-11-20T14:56:15.102Z,100285.41
2018-11-20T14:59:01.842Z,100278.59
2018-11-20T15:01:55.814Z,100288.30
2018-11-20T15:04:46.740Z,100281.20
2018-11-20T15:07:40.682Z,100294.64
2018-11-20T15:10:40.117Z,100288.77
2018-11-20T15:13:32.737Z,100289.14
2018-11-20T15:16:33.276Z,100287.40
2018-11-20T15:19:13.427Z,100301.77
2018-11-20T15:22:16.647Z,100291.98
2018-11-20T15:24:53.551Z,100289.51
2018-11-20T15:27:38.426Z,100283.56
2018-11-20T15:30:22.944Z,100272.61
2018-11-20T15:33:00.519Z,100289.42
2018-11-20T15:35:43.077Z,100297.53
2018-11-20T15:38:19.676Z,100291.95
2018-11-20T15:41:06.462Z,100296.53
2018-11-20T15:44:07.110Z,100308.67
2018-11-20T15:47:01.279Z,100298.63
2018-11-20T15:49:48.483Z,100304.01
2018-11-20T15:52:42.808Z,100313.69
2018-11-20T15:55:29.873Z,100316.78
2018-11-20T15:58:23.483Z,100324.22
2018-11-20T16:01:10.286Z,100325.73
2018-11-20T16:03:53.869Z,100323.09
2018-11-20T16:07:01.813Z,100318.85
2018-11-20T16:09:43.953Z,100311.60
2018-11-20T16:12:32.138Z,100315.77
2018-11-20T16:15:29.681Z,100333.77
2018-11-20T16:18:16.385Z,100343.31
2018-11-20T16:21:04.644Z,100343.31
2018-11-20T16:23:53.044Z,100340.38
2018-11-20T16:26:41.324Z,100342.82
2018-11-20T16:29:29.302Z,100342.39
2018-11-20T16:32:17.573Z,100346.18
2018-11-20T16:35:08.571Z,100355.00
2018-11-20T16:37:55.211Z,100352.41
2018-11-20T16:40:50.792Z,100346.94
2018-11-20T16:43:37.655Z,100345.30
2018-11-20T16:46:40.746Z,100355.42
2018-11-20T16:49:27.497Z,100352.48
2018-11-20T16:52:10.510Z,100357.95
2018-11-20T16:54:57.743Z,100347.78
2018-11-20T16:57:36.307Z,100342.66
2018-11-20T17:00:39.059Z,100350.23
2018-11-20T17:03:27.397Z,100364.20
2018-11-20T17:06:12.423Z,100360.34
2018-11-20T17:09:09.771Z,100359.97
2018-11-20T17:11:52.398Z,100355.27
2018-11-20T17:14:37.177Z,100360.31
2018-11-20T17:17:24.029Z,100352.70
2018-11-20T17:20:24.219Z,100352.08
2018-11-20T17:23:09.027Z,100365.52
2018-11-20T17:25:59.310Z,100364.77
2018-11-20T17:28:48.153Z,100360.44
2018-11-20T17:31:45.535Z,100362.16
2018-11-20T17:34:27.416Z,100368.76
2018-11-20T17:37:14.386Z,100375.56
2018-11-20T17:40:01.336Z,100372.25
2018-11-20T17:42:55.524Z,100383.21
2018-11-20T17:45:42.830Z,100386.11
2018-11-20T17:48:49.684Z,100387.41
2018-11-20T17:51:38.589Z,100379.80
2018-11-20T17:54:25.330Z,100378.42
2018-11-20T17:57:19.362Z,100378.29
2018-11-20T18:00:13.182Z,100374.26
2018-11-20T18:03:01.573Z,100360.39
2018-11-20T18:05:55.830Z,100369.23
2018-11-20T18:08:54.495Z,100372.16
2018-11-20T18:11:35.486Z,100374.22
2018-11-20T18:14:30.175Z,100365.36
2018-11-20T18:17:21.318Z,100373.84
2018-11-20T18:20:09.688Z,100370.73
2018-11-20T18:22:52.417Z,100367.79
2018-11-20T18:25:39.498Z,100373.67
2018-11-20T18:28:25.651Z,100376.19
2018-11-20T18:31:19.947Z,100381.65
2018-11-20T18:34:06.612Z,100393.03
2018-11-20T18:36:52.227Z,100390.13
2018-11-20T18:39:43.168Z,100383.75
2018-11-20T18:42:31.595Z,100381.61
2018-11-20T18:45:18.482Z,100388.84
2018-11-20T18:48:05.439Z,100386.73
2018-11-20T18:51:02.251Z,100395.55
2018-11-20T18:53:48.190Z,100397.94
2018-11-20T18:56:39.534Z,100392.66
2018-11-20T18:59:27.427Z,100392.23
2018-11-20T19:02:14.310Z,100392.91
2018-11-20T19:04:58.153Z,100391.69
2018-11-20T19:08:01.098Z,100390.92
2018-11-20T19:10:48.886Z,100389.63
2018-11-20T19:13:37.238Z,100398.83
2018-11-20T19:16:24.625Z,100404.75
2018-11-20T19:19:07.083Z,100401.09
2018-11-20T19:21:58.283Z,100397.23
2018-11-20T19:24:55.587Z,100399.46
2018-11-20T19:27:56.071Z,100406.56
2018-11-20T19:30:44.314Z,100406.70
2018-11-20T19:33:38.598Z,100405.56
2018-11-20T19:36:25.748Z,100411.41
2018-11-20T19:39:12.877Z,100405.59
2018-11-20T19:42:06.825Z,100408.62
2018-11-20T19:45:00.925Z,100415.31
2018-11-20T19:47:49.183Z,100419.56
2018-11-20T19:50:35.961Z,100409.97
2018-11-20T19:53:15.210Z,100409.97
2018-11-20T19:56:15.442Z,100414.63
2018-11-20T19:58:59.828Z,100410.81
2018-11-20T20:01:59.925Z,100432.67
2018-11-20T20:04:49.945Z,100430.23
2018-11-20T20:07:30.717Z,100421.86
2018-11-20T20:10:30.805Z,100413.84
2018-11-20T20:13:15.894Z,100411.78
2018-11-20T20:16:22.346Z,100416.06
2018-11-20T20:19:09.431Z,100413.50
2018-11-20T20:22:00.502Z,100414.77
2018-11-20T20:24:57.832Z,100420.22
2018-11-20T20:28:04.551Z,100422.41
2018-11-20T20:30:48.116Z,100415.69
2018-11-20T20:33:36.378Z,100420.31
2018-11-20T20:36:23.838Z,100429.48
2018-11-20T20:39:05.420Z,100423.97
2018-11-20T20:41:52.053Z,100427.79
2018-11-20T20:44:38.768Z,100432.88
2018-11-20T20:47:32.878Z,100429.05
2018-11-20T20:50:16.771Z,100424.84
2018-11-20T20:53:36.744Z,100432.00
2018-11-20T20:56:27.861Z,100430.73
2018-11-20T20:59:22.497Z,100437.45
2018-11-20T21:02:18.889Z,100438.30
2018-11-20T21:05:01.312Z,100446.28
2018-11-20T21:07:47.608Z,100449.73
2018-11-20T21:10:33.792Z,100452.16
2018-11-20T21:13:19.629Z,100457.67
2018-11-20T21:16:06.025Z,100461.00
2018-11-20T21:18:59.452Z,100468.56
2018-11-20T21:21:55.898Z,100475.70
2018-11-20T21:24:45.765Z,100478.65
2018-11-20T21:27:33.024Z,100485.45
2018-11-20T21:30:10.081Z,100494.61
2018-11-20T21:32:56.224Z,100491.25
2018-11-20T21:35:53.080Z,100489.61
2018-11-20T21:38:47.827Z,100496.42
2018-11-20T21:41:33.952Z,100502.69
2018-11-20T21:44:20.237Z,100505.21
2018-11-20T21:47:07.746Z,100509.80
2018-11-20T21:49:53.531Z,100513.16
2018-11-20T21:52:39.384Z,100517.86
2018-11-20T21:55:33.513Z,100520.77
2018-11-20T21:58:38.984Z,100529.16
2018-11-20T22:01:46.172Z,100525.81
2018-11-20T22:04:36.208Z,100531.78
2018-11-20T22:07:24.347Z,100535.52
2018-11-20T22:10:20.429Z,100532.12
2018-11-20T22:13:17.259Z,100532.99
2018-11-20T22:16:03.954Z,100531.23
2018-11-20T22:19:00.348Z,100531.69
2018-11-20T22:21:40.306Z,100529.22
2018-11-20T22:24:42.708Z,100530.42
2018-11-20T22:27:29.171Z,100523.75
2018-11-20T22:30:16.703Z,100524.63
2018-11-20T22:33:12.907Z,100525.05
2018-11-20T22:35:49.392Z,100531.73
2018-11-20T22:38:26.047Z,100530.86
2018-11-20T22:41:31.799Z,100532.44
2018-11-20T22:44:28.423Z,100536.59
2018-11-20T22:47:34.585Z,100533.19
2018-11-20T22:50:31.861Z,100540.00
2018-11-20T22:53:25.382Z,100534.08
2018-11-20T22:56:24.927Z,100530.25
2018-11-20T22:59:12.521Z,100538.61
2018-11-20T23:02:09.029Z,100535.67
2018-11-20T23:04:53.884Z,100543.27
2018-11-20T23:07:39.905Z,100549.11
2018-11-20T23:10:08.325Z,100548.31
2018-11-20T23:12:36.963Z,100546.69
2018-11-20T23:15:08.542Z,100550.09
2018-11-20T23:17:36.863Z,100549.72
2018-11-20T23:20:06.259Z,100553.82
2018-11-20T23:22:34.729Z,100554.63
2018-11-20T23:25:03.255Z,100558.27
2018-11-20T23:27:32.339Z,100552.94
2018-11-20T23:30:01.505Z,100557.05
2018-11-20T23:32:29.998Z,100557.09
2018-11-20T23:34:58.428Z,100547.94
2018-11-20T23:37:26.874Z,100553.36
2018-11-20T23:39:55.742Z,100555.08
2018-11-20T23:42:24.061Z,100549.58
2018-11-20T23:44:52.544Z,100558.08
2018-11-20T23:47:20.991Z,100551.45
2018-11-20T23:49:52.619Z,100555.74
2018-11-20T23:52:20.946Z,100549.95
2018-11-20T23:54:49.418Z,100550.84
2018-11-20T23:57:17.837Z,100545.09
2018-11-20T23:59:46.362Z,100543.84
